createdAt,value
2019-05-22T00:00:31.541Z,0.00
2019-05-22T00:01:31.522Z,0.00
2019-05-22T00:02:31.505Z,0.00
2019-05-22T00:03:31.525Z,0.00
2019-05-22T00:04:31.485Z,0.00
2019-05-22T00:05:31.490Z,0.00
2019-05-22T00:06:31.479Z,0.00
2019-05-22T00:07:31.452Z,0.00
2019-05-22T00:08:31.484Z,0.00
2019-05-22T00:09:31.431Z,0.00
2019-05-22T00:10:31.467Z,0.00
2019-05-22T00:11:31.419Z,0.00
2019-05-22T00:12:45.790Z,0.00
2019-05-22T00:13:32.384Z,0.00
2019-05-22T00:14:31.372Z,0.00
2019-05-22T00:15:31.403Z,0.00
2019-05-22T00:16:31.394Z,0.00
2019-05-22T00:17:31.340Z,0.00
2019-05-22T00:18:31.332Z,0.00
2019-05-22T00:19:31.323Z,0.00
2019-05-22T00:20:31.309Z,0.00
2019-05-22T00:21:31.294Z,0.00
2019-05-22T00:22:31.328Z,0.00
2019-05-22T00:23:31.276Z,0.00
2019-05-22T00:24:31.266Z,0.00
2019-05-22T00:25:33.202Z,0.00
2019-05-22T00:26:31.246Z,0.00
2019-05-22T00:27:31.228Z,0.00
2019-05-22T00:28:31.578Z,0.00
2019-05-22T00:29:31.205Z,0.00
2019-05-22T00:30:31.195Z,0.00
2019-05-22T00:31:31.181Z,0.00
2019-05-22T00:32:31.173Z,0.00
2019-05-22T00:33:31.163Z,0.00
2019-05-22T00:34:31.193Z,0.00
2019-05-22T00:35:31.141Z,0.00
2019-05-22T00:36:31.132Z,0.00
2019-05-22T00:37:31.123Z,0.00
2019-05-22T00:38:31.105Z,0.00
2019-05-22T00:39:31.129Z,0.00
2019-05-22T00:40:31.100Z,0.00
2019-05-22T00:41:31.074Z,0.00
2019-05-22T00:42:31.078Z,0.00
2019-05-22T00:43:31.052Z,0.00
2019-05-22T00:44:31.039Z,0.00
2019-05-22T00:45:31.039Z,0.00
2019-05-22T00:46:31.033Z,0.00
2019-05-22T00:47:31.004Z,0.00
2019-05-22T00:48:31.043Z,0.00
2019-05-22T00:49:30.985Z,0.00
2019-05-22T00:50:30.988Z,0.00
2019-05-22T00:51:30.965Z,0.00
2019-05-22T00:52:30.993Z,0.00
2019-05-22T00:53:30.939Z,0.00
2019-05-22T00:54:30.928Z,0.00
2019-05-22T00:55:30.916Z,0.00
2019-05-22T00:56:30.923Z,0.00
2019-05-22T00:57:30.946Z,0.00
2019-05-22T00:58:30.882Z,0.00
2019-05-22T00:59:30.872Z,0.00
2019-05-22T01:00:30.860Z,0.00
2019-05-22T01:01:30.852Z,0.00
2019-05-22T01:02:30.851Z,0.00
2019-05-22T01:03:30.862Z,0.00
2019-05-22T01:04:30.819Z,0.00
2019-05-22T01:05:38.377Z,0.00
2019-05-22T01:06:30.805Z,0.00
2019-05-22T01:07:30.794Z,0.00
2019-05-22T01:08:30.783Z,0.00
2019-05-22T01:09:30.793Z,0.00
2019-05-22T01:10:30.774Z,0.00
2019-05-22T01:11:30.789Z,0.00
2019-05-22T01:12:30.756Z,0.00
2019-05-22T01:13:30.722Z,0.00
2019-05-22T01:14:42.382Z,0.00
2019-05-22T01:15:31.697Z,0.00
2019-05-22T01:16:30.716Z,0.00
2019-05-22T01:17:30.735Z,0.00
2019-05-22T01:18:30.679Z,0.00
2019-05-22T01:19:30.769Z,0.00
2019-05-22T01:20:30.689Z,0.00
2019-05-22T01:21:30.629Z,0.00
2019-05-22T01:22:30.635Z,0.00
2019-05-22T01:23:30.636Z,0.00
2019-05-22T01:24:30.599Z,0.00
2019-05-22T01:25:30.608Z,0.00
2019-05-22T01:26:30.587Z,0.00
2019-05-22T01:27:30.564Z,0.00
2019-05-22T01:28:30.557Z,0.00
2019-05-22T01:29:30.544Z,0.00
2019-05-22T01:30:30.548Z,0.00
2019-05-22T01:31:30.517Z,0.00
2019-05-22T01:32:30.525Z,0.00
2019-05-22T01:33:30.504Z,0.00
2019-05-22T01:34:30.497Z,0.00
2019-05-22T01:35:30.482Z,0.00
2019-05-22T01:36:30.498Z,0.00
2019-05-22T01:37:30.466Z,0.00
2019-05-22T01:38:30.465Z,0.00
2019-05-22T01:39:30.453Z,0.00
2019-05-22T01:40:30.424Z,0.00
2019-05-22T01:41:30.440Z,0.00
2019-05-22T01:42:30.413Z,0.00
2019-05-22T01:43:30.402Z,0.00
2019-05-22T01:44:30.377Z,0.00
2019-05-22T01:45:30.372Z,0.00
2019-05-22T01:46:30.357Z,0.00
2019-05-22T01:47:30.370Z,0.00
2019-05-22T01:48:30.331Z,0.00
2019-05-22T01:49:30.317Z,0.00
2019-05-22T01:50:30.315Z,0.00
2019-05-22T01:51:30.304Z,0.00
2019-05-22T01:52:30.299Z,0.00
2019-05-22T01:53:30.275Z,0.00
2019-05-22T01:54:30.272Z,0.00
2019-05-22T01:55:30.252Z,0.00
2019-05-22T01:56:30.251Z,0.00
2019-05-22T01:57:30.231Z,0.00
2019-05-22T01:58:30.249Z,0.00
2019-05-22T01:59:30.209Z,0.00
2019-05-22T02:00:30.201Z,0.00
2019-05-22T02:01:30.406Z,0.00
2019-05-22T02:02:30.187Z,0.00
2019-05-22T02:03:30.168Z,0.00
2019-05-22T02:04:30.151Z,0.00
2019-05-22T02:05:30.153Z,0.00
2019-05-22T02:06:30.130Z,0.00
2019-05-22T02:07:30.119Z,0.00
2019-05-22T02:08:30.110Z,0.00
2019-05-22T02:09:30.130Z,0.00
2019-05-22T02:10:30.094Z,0.00
2019-05-22T02:11:30.097Z,0.00
2019-05-22T02:12:30.076Z,0.00
2019-05-22T02:13:30.052Z,0.00
2019-05-22T02:14:30.044Z,0.00
2019-05-22T02:15:30.045Z,0.00
2019-05-22T02:16:30.017Z,0.00
2019-05-22T02:17:30.034Z,0.00
2019-05-22T02:18:30.000Z,0.00
2019-05-22T02:19:30.015Z,0.00
2019-05-22T02:20:29.972Z,0.00
2019-05-22T02:21:29.961Z,0.00
2019-05-22T02:22:29.975Z,0.00
2019-05-22T02:23:29.940Z,0.00
2019-05-22T02:24:29.932Z,0.00
2019-05-22T02:25:29.939Z,0.00
2019-05-22T02:26:29.911Z,0.00
2019-05-22T02:27:29.900Z,0.00
2019-05-22T02:28:29.904Z,0.00
2019-05-22T02:29:29.873Z,0.00
2019-05-22T02:30:29.877Z,0.00
2019-05-22T02:31:29.862Z,0.00
2019-05-22T02:32:29.847Z,0.00
2019-05-22T02:33:29.831Z,0.00
2019-05-22T02:34:29.884Z,0.00
2019-05-22T02:35:29.820Z,0.00
2019-05-22T02:36:29.798Z,0.00
2019-05-22T02:37:29.798Z,0.00
2019-05-22T02:38:29.785Z,0.00
2019-05-22T02:39:29.772Z,0.00
2019-05-22T02:40:29.752Z,0.00
2019-05-22T02:41:29.759Z,0.00
2019-05-22T02:42:29.731Z,0.00
2019-05-22T02:43:29.723Z,0.00
2019-05-22T02:44:29.739Z,0.00
2019-05-22T02:45:29.709Z,0.00
2019-05-22T02:46:29.686Z,0.00
2019-05-22T02:47:29.697Z,0.00
2019-05-22T02:48:29.667Z,0.00
2019-05-22T02:49:29.655Z,0.00
2019-05-22T02:50:29.648Z,0.00
2019-05-22T02:51:29.644Z,0.00
2019-05-22T02:52:29.628Z,0.00
2019-05-22T02:53:29.631Z,0.00
2019-05-22T02:54:29.604Z,0.00
2019-05-22T02:55:29.585Z,0.00
2019-05-22T02:56:29.575Z,0.00
2019-05-22T02:57:29.573Z,0.00
2019-05-22T02:58:29.555Z,0.00
2019-05-22T02:59:29.558Z,0.00
2019-05-22T03:00:29.530Z,0.00
2019-05-22T03:01:29.521Z,0.00
2019-05-22T03:02:29.523Z,0.00
2019-05-22T03:03:29.505Z,0.00
2019-05-22T03:04:29.492Z,0.00
2019-05-22T03:05:29.499Z,0.00
2019-05-22T03:06:29.516Z,0.00
2019-05-22T03:07:29.458Z,0.00
2019-05-22T03:08:29.454Z,0.00
2019-05-22T03:09:29.435Z,0.00
2019-05-22T03:10:29.429Z,0.00
2019-05-22T03:11:29.424Z,0.00
2019-05-22T03:12:29.418Z,4.00
2019-05-22T03:13:29.395Z,0.00
2019-05-22T03:14:29.391Z,0.00
2019-05-22T03:15:29.417Z,0.00
2019-05-22T03:16:29.376Z,4.00
2019-05-22T03:17:29.344Z,0.00
2019-05-22T03:18:29.340Z,0.00
2019-05-22T03:19:29.328Z,0.00
2019-05-22T03:20:29.327Z,0.00
2019-05-22T03:21:29.308Z,0.00
2019-05-22T03:22:29.308Z,0.00
2019-05-22T03:23:29.297Z,0.00
2019-05-22T03:24:29.272Z,4.00
2019-05-22T03:25:29.265Z,0.00
2019-05-22T03:26:29.249Z,0.00
2019-05-22T03:27:29.245Z,4.00
2019-05-22T03:28:29.229Z,4.00
2019-05-22T03:29:29.223Z,4.00
2019-05-22T03:30:29.205Z,4.00
2019-05-22T03:31:29.192Z,0.00
2019-05-22T03:32:29.181Z,0.00
2019-05-22T03:33:29.189Z,4.00
2019-05-22T03:34:29.195Z,4.00
2019-05-22T03:35:29.179Z,4.00
2019-05-22T03:36:29.140Z,4.00
2019-05-22T03:37:29.132Z,4.00
2019-05-22T03:38:29.114Z,4.00
2019-05-22T03:39:29.109Z,4.00
2019-05-22T03:40:29.091Z,4.00
2019-05-22T03:41:29.106Z,4.00
2019-05-22T03:42:29.070Z,8.00
2019-05-22T03:43:29.062Z,8.00
2019-05-22T03:44:36.603Z,4.00
2019-05-22T03:45:29.066Z,4.00
2019-05-22T03:46:37.891Z,8.00
2019-05-22T03:47:36.584Z,8.00
2019-05-22T03:48:29.011Z,8.00
2019-05-22T03:49:36.538Z,8.00
2019-05-22T03:50:36.585Z,8.00
2019-05-22T03:51:29.022Z,12.00
2019-05-22T03:52:38.002Z,12.00
2019-05-22T03:53:36.554Z,12.00
2019-05-22T03:54:28.940Z,8.00
2019-05-22T03:55:37.481Z,8.00
2019-05-22T03:56:37.593Z,8.00
2019-05-22T03:57:28.906Z,12.00
2019-05-22T03:58:28.912Z,12.00
2019-05-22T03:59:28.879Z,8.00
2019-05-22T04:00:28.875Z,8.00
2019-05-22T04:01:28.862Z,12.00
2019-05-22T04:02:28.881Z,12.00
2019-05-22T04:03:28.838Z,12.00
2019-05-22T04:04:28.829Z,12.00
2019-05-22T04:05:28.819Z,8.00
2019-05-22T04:06:28.806Z,12.00
2019-05-22T04:07:28.850Z,12.00
2019-05-22T04:08:28.795Z,16.00
2019-05-22T04:09:28.782Z,12.00
2019-05-22T04:10:28.761Z,12.00
2019-05-22T04:11:28.761Z,12.00
2019-05-22T04:12:28.763Z,16.00
2019-05-22T04:13:28.746Z,16.00
2019-05-22T04:14:28.730Z,16.00
2019-05-22T04:15:28.702Z,12.00
2019-05-22T04:16:28.695Z,12.00
2019-05-22T04:17:28.693Z,16.00
2019-05-22T04:18:28.691Z,16.00
2019-05-22T04:19:45.115Z,12.00
2019-05-22T04:20:29.660Z,16.00
2019-05-22T04:21:28.637Z,20.00
2019-05-22T04:22:28.634Z,28.00
2019-05-22T04:23:28.621Z,32.00
2019-05-22T04:24:28.618Z,28.00
2019-05-22T04:25:28.603Z,24.00
2019-05-22T04:26:28.600Z,28.00
2019-05-22T04:27:28.578Z,36.00
2019-05-22T04:28:28.564Z,40.00
2019-05-22T04:29:28.557Z,40.00
2019-05-22T04:30:28.553Z,36.00
2019-05-22T04:31:28.533Z,36.00
2019-05-22T04:32:28.527Z,48.00
2019-05-22T04:33:28.539Z,56.00
2019-05-22T04:34:28.509Z,56.00
2019-05-22T04:35:28.557Z,44.00
2019-05-22T04:36:28.490Z,44.00
2019-05-22T04:37:28.478Z,56.00
2019-05-22T04:38:28.479Z,68.00
2019-05-22T04:39:28.440Z,60.00
2019-05-22T04:40:28.429Z,56.00
2019-05-22T04:41:28.447Z,56.00
2019-05-22T04:42:28.409Z,64.00
2019-05-22T04:43:28.406Z,68.00
2019-05-22T04:44:28.392Z,64.00
2019-05-22T04:45:28.426Z,56.00
2019-05-22T04:46:28.364Z,44.00
2019-05-22T04:47:28.371Z,56.00
2019-05-22T04:48:28.342Z,72.00
2019-05-22T04:49:28.332Z,68.00
2019-05-22T04:50:28.373Z,60.00
2019-05-22T04:51:28.368Z,60.00
2019-05-22T04:52:28.356Z,84.00
2019-05-22T04:53:28.296Z,104.00
2019-05-22T04:54:28.279Z,104.00
2019-05-22T04:55:28.275Z,84.00
2019-05-22T04:56:28.271Z,80.00
2019-05-22T04:57:28.247Z,100.00
2019-05-22T04:58:28.253Z,120.00
2019-05-22T04:59:28.221Z,112.00
2019-05-22T05:00:28.223Z,100.00
2019-05-22T05:01:28.237Z,96.00
2019-05-22T05:02:28.192Z,120.00
2019-05-22T05:03:28.180Z,140.00
2019-05-22T05:04:28.162Z,132.00
2019-05-22T05:05:28.160Z,112.00
2019-05-22T05:06:28.151Z,104.00
2019-05-22T05:07:28.130Z,124.00
2019-05-22T05:08:28.117Z,140.00
2019-05-22T05:09:28.113Z,136.00
2019-05-22T05:10:28.093Z,116.00
2019-05-22T05:11:28.155Z,112.00
2019-05-22T05:12:28.082Z,124.00
2019-05-22T05:13:28.068Z,128.00
2019-05-22T05:14:28.058Z,100.00
2019-05-22T05:15:28.046Z,80.00
2019-05-22T05:16:28.031Z,88.00
2019-05-22T05:17:28.036Z,96.00
2019-05-22T05:18:28.039Z,100.00
2019-05-22T05:19:28.000Z,84.00
2019-05-22T05:20:27.990Z,72.00
2019-05-22T05:21:27.984Z,76.00
2019-05-22T05:22:28.004Z,80.00
2019-05-22T05:23:27.958Z,80.00
2019-05-22T05:24:27.941Z,68.00
2019-05-22T05:25:27.930Z,60.00
2019-05-22T05:26:27.919Z,68.00
2019-05-22T05:27:27.908Z,88.00
2019-05-22T05:28:27.911Z,84.00
2019-05-22T05:29:27.945Z,68.00
2019-05-22T05:30:27.876Z,60.00
2019-05-22T05:31:27.865Z,72.00
2019-05-22T05:32:27.896Z,88.00
2019-05-22T05:33:27.861Z,80.00
2019-05-22T05:34:27.850Z,68.00
2019-05-22T05:35:27.833Z,64.00
2019-05-22T05:36:27.838Z,76.00
2019-05-22T05:37:27.800Z,104.00
2019-05-22T05:38:27.802Z,100.00
2019-05-22T05:39:27.810Z,80.00
2019-05-22T05:40:27.910Z,68.00
2019-05-22T05:41:27.751Z,88.00
2019-05-22T05:42:27.745Z,100.00
2019-05-22T05:43:27.728Z,108.00
2019-05-22T05:44:27.721Z,96.00
2019-05-22T05:45:27.723Z,76.00
2019-05-22T05:46:27.704Z,92.00
2019-05-22T05:47:27.687Z,108.00
2019-05-22T05:48:27.699Z,112.00
2019-05-22T05:49:27.689Z,96.00
2019-05-22T05:50:39.089Z,76.00
2019-05-22T05:51:28.644Z,88.00
2019-05-22T05:52:27.659Z,96.00
2019-05-22T05:53:27.635Z,116.00
2019-05-22T05:54:30.228Z,104.00
2019-05-22T05:55:27.611Z,80.00
2019-05-22T05:56:27.586Z,76.00
2019-05-22T05:57:27.586Z,112.00
2019-05-22T05:58:27.590Z,128.00
2019-05-22T05:59:27.555Z,120.00
2019-05-22T06:00:27.542Z,100.00
2019-05-22T06:01:27.552Z,112.00
2019-05-22T06:02:27.543Z,136.00
2019-05-22T06:03:27.540Z,148.00
2019-05-22T06:04:34.901Z,132.00
2019-05-22T06:05:28.489Z,116.00
2019-05-22T06:06:27.480Z,128.00
2019-05-22T06:07:27.466Z,156.00
2019-05-22T06:08:27.482Z,168.00
2019-05-22T06:09:27.521Z,148.00
2019-05-22T06:10:27.434Z,124.00
2019-05-22T06:11:27.425Z,140.00
2019-05-22T06:12:27.415Z,160.00
2019-05-22T06:13:27.408Z,168.00
2019-05-22T06:14:27.428Z,144.00
2019-05-22T06:15:27.397Z,120.00
2019-05-22T06:16:27.400Z,128.00
2019-05-22T06:17:27.392Z,144.00
2019-05-22T06:18:27.345Z,156.00
2019-05-22T06:19:27.339Z,144.00
2019-05-22T06:20:27.347Z,124.00
2019-05-22T06:21:27.326Z,124.00
2019-05-22T06:22:27.331Z,140.00
2019-05-22T06:23:27.300Z,164.00
2019-05-22T06:24:27.281Z,160.00
2019-05-22T06:25:27.272Z,140.00
2019-05-22T06:26:27.271Z,152.00
2019-05-22T06:27:27.244Z,172.00
2019-05-22T06:28:27.233Z,192.00
2019-05-22T06:29:28.228Z,200.00
2019-05-22T06:30:27.243Z,188.00
2019-05-22T06:31:27.241Z,172.00
2019-05-22T06:32:27.213Z,188.00
2019-05-22T06:33:27.179Z,204.00
2019-05-22T06:34:27.204Z,216.00
2019-05-22T06:35:27.166Z,200.00
2019-05-22T06:36:27.144Z,188.00
2019-05-22T06:37:27.142Z,176.00
2019-05-22T06:38:27.160Z,204.00
2019-05-22T06:39:27.131Z,212.00
2019-05-22T06:40:27.161Z,212.00
2019-05-22T06:41:27.126Z,192.00
2019-05-22T06:42:27.082Z,184.00
2019-05-22T06:43:27.092Z,208.00
2019-05-22T06:44:27.070Z,224.00
2019-05-22T06:45:27.055Z,240.00
2019-05-22T06:46:27.058Z,220.00
2019-05-22T06:47:27.025Z,212.00
2019-05-22T06:48:27.025Z,284.00
2019-05-22T06:49:27.027Z,308.00
2019-05-22T06:50:26.994Z,336.00
2019-05-22T06:51:27.035Z,320.00
2019-05-22T06:52:26.967Z,292.00
2019-05-22T06:53:26.958Z,308.00
2019-05-22T06:54:26.946Z,332.00
2019-05-22T06:55:26.973Z,360.00
2019-05-22T06:56:26.930Z,356.00
2019-05-22T06:57:26.977Z,328.00
2019-05-22T06:58:26.906Z,344.00
2019-05-22T06:59:26.892Z,364.00
2019-05-22T07:00:26.898Z,380.00
2019-05-22T07:01:26.892Z,372.00
2019-05-22T07:02:26.861Z,352.00
2019-05-22T07:03:26.890Z,344.00
2019-05-22T07:04:26.838Z,388.00
2019-05-22T07:05:26.825Z,456.00
2019-05-22T07:06:26.829Z,468.00
2019-05-22T07:07:34.349Z,424.00
2019-05-22T07:08:26.800Z,396.00
2019-05-22T07:09:26.778Z,388.00
2019-05-22T07:10:26.769Z,416.00
2019-05-22T07:11:26.759Z,488.00
2019-05-22T07:12:26.774Z,488.00
2019-05-22T07:13:26.759Z,456.00
2019-05-22T07:14:26.729Z,448.00
2019-05-22T07:15:26.726Z,376.00
2019-05-22T07:16:26.712Z,404.00
2019-05-22T07:17:26.697Z,424.00
2019-05-22T07:18:26.692Z,376.00
2019-05-22T07:19:26.666Z,328.00
2019-05-22T07:20:26.656Z,252.00
2019-05-22T07:21:33.590Z,264.00
2019-05-22T07:22:27.639Z,340.00
2019-05-22T07:23:26.673Z,368.00
2019-05-22T07:24:26.615Z,364.00
2019-05-22T07:25:26.601Z,336.00
2019-05-22T07:26:26.608Z,252.00
2019-05-22T07:27:26.579Z,272.00
2019-05-22T07:28:26.584Z,308.00
2019-05-22T07:29:26.568Z,300.00
2019-05-22T07:30:26.545Z,288.00
2019-05-22T07:31:26.554Z,260.00
2019-05-22T07:32:30.525Z,240.00
2019-05-22T07:33:26.512Z,284.00
2019-05-22T07:34:26.499Z,308.00
2019-05-22T07:35:42.369Z,300.00
2019-05-22T07:36:27.494Z,296.00
2019-05-22T07:37:26.470Z,296.00
2019-05-22T07:38:26.458Z,320.00
2019-05-22T07:39:26.446Z,340.00
2019-05-22T07:40:26.438Z,432.00
2019-05-22T07:41:26.436Z,444.00
2019-05-22T07:42:26.421Z,436.00
2019-05-22T07:43:26.410Z,412.00
2019-05-22T07:44:26.393Z,440.00
2019-05-22T07:45:26.378Z,464.00
2019-05-22T07:46:26.366Z,472.00
2019-05-22T07:47:26.370Z,436.00
2019-05-22T07:48:26.347Z,376.00
2019-05-22T07:49:26.355Z,316.00
2019-05-22T07:50:26.347Z,352.00
2019-05-22T07:51:26.336Z,380.00
2019-05-22T07:52:26.298Z,416.00
2019-05-22T07:53:26.287Z,376.00
2019-05-22T07:54:26.289Z,372.00
2019-05-22T07:55:26.305Z,356.00
2019-05-22T07:56:26.263Z,324.00
2019-05-22T07:57:26.257Z,376.00
2019-05-22T07:58:26.250Z,356.00
2019-05-22T07:59:26.222Z,484.00
2019-05-22T08:00:26.211Z,496.00
2019-05-22T08:01:26.204Z,460.00
2019-05-22T08:02:26.189Z,468.00
2019-05-22T08:03:26.203Z,432.00
2019-05-22T08:04:26.194Z,456.00
2019-05-22T08:05:26.175Z,484.00
2019-05-22T08:06:26.150Z,504.00
2019-05-22T08:07:26.134Z,472.00
2019-05-22T08:08:26.130Z,424.00
2019-05-22T08:09:26.166Z,408.00
2019-05-22T08:10:26.135Z,452.00
2019-05-22T08:11:26.097Z,424.00
2019-05-22T08:12:26.103Z,520.00
2019-05-22T08:13:26.073Z,536.00
2019-05-22T08:14:26.058Z,536.00
2019-05-22T08:15:26.064Z,528.00
2019-05-22T08:16:26.041Z,488.00
2019-05-22T08:17:26.024Z,464.00
2019-05-22T08:18:26.017Z,464.00
2019-05-22T08:19:26.038Z,508.00
2019-05-22T08:20:25.997Z,528.00
2019-05-22T08:21:25.993Z,508.00
2019-05-22T08:22:25.992Z,480.00
2019-05-22T08:23:25.960Z,440.00
2019-05-22T08:24:25.983Z,464.00
2019-05-22T08:25:25.935Z,428.00
2019-05-22T08:26:25.931Z,452.00
2019-05-22T08:27:25.956Z,496.00
2019-05-22T08:28:25.905Z,472.00
2019-05-22T08:29:25.929Z,456.00
2019-05-22T08:30:25.926Z,440.00
2019-05-22T08:31:25.877Z,480.00
2019-05-22T08:32:25.861Z,480.00
2019-05-22T08:33:25.869Z,480.00
2019-05-22T08:34:25.841Z,440.00
2019-05-22T08:35:25.866Z,408.00
2019-05-22T08:36:25.816Z,396.00
2019-05-22T08:37:25.809Z,440.00
2019-05-22T08:38:25.791Z,468.00
2019-05-22T08:39:25.800Z,476.00
2019-05-22T08:40:25.789Z,480.00
2019-05-22T08:41:25.761Z,448.00
2019-05-22T08:42:25.751Z,456.00
2019-05-22T08:43:25.735Z,516.00
2019-05-22T08:44:25.725Z,584.00
2019-05-22T08:45:25.730Z,592.00
2019-05-22T08:46:25.705Z,592.00
2019-05-22T08:47:25.693Z,564.00
2019-05-22T08:48:25.703Z,536.00
2019-05-22T08:49:25.884Z,588.00
2019-05-22T08:50:25.752Z,676.00
2019-05-22T08:51:34.752Z,660.00
2019-05-22T08:52:25.664Z,664.00
2019-05-22T08:53:25.630Z,600.00
2019-05-22T08:54:25.640Z,556.00
2019-05-22T08:55:25.619Z,476.00
2019-05-22T08:56:25.606Z,452.00
2019-05-22T08:57:25.591Z,492.00
2019-05-22T08:58:25.574Z,552.00
2019-05-22T08:59:25.564Z,596.00
2019-05-22T09:00:25.571Z,680.00
2019-05-22T09:01:25.556Z,716.00
2019-05-22T09:02:25.570Z,676.00
2019-05-22T09:03:25.544Z,660.00
2019-05-22T09:04:25.524Z,696.00
2019-05-22T09:05:25.552Z,680.00
2019-05-22T09:06:25.500Z,624.00
2019-05-22T09:07:25.475Z,592.00
2019-05-22T09:08:25.501Z,616.00
2019-05-22T09:09:25.460Z,608.00
2019-05-22T09:10:26.332Z,652.00
2019-05-22T09:11:25.467Z,788.00
2019-05-22T09:12:25.453Z,800.00
2019-05-22T09:13:25.416Z,848.00
2019-05-22T09:14:25.401Z,944.00
2019-05-22T09:15:25.384Z,988.00
2019-05-22T09:16:25.396Z,1152.00
2019-05-22T09:17:25.373Z,1612.00
2019-05-22T09:18:25.375Z,3992.00
2019-05-22T09:19:25.341Z,1468.00
2019-05-22T09:20:25.369Z,1420.00
2019-05-22T09:21:25.321Z,1272.00
2019-05-22T09:22:39.635Z,1212.00
2019-05-22T09:23:26.451Z,1328.00
2019-05-22T09:24:25.416Z,4024.00
2019-05-22T09:25:25.313Z,1300.00
2019-05-22T09:26:25.280Z,1284.00
2019-05-22T09:27:25.255Z,1312.00
2019-05-22T09:28:25.237Z,1548.00
2019-05-22T09:29:25.265Z,3448.00
2019-05-22T09:30:25.253Z,2324.00
2019-05-22T09:31:25.264Z,1376.00
2019-05-22T09:32:25.212Z,2276.00
2019-05-22T09:33:25.185Z,2692.00
2019-05-22T09:34:25.252Z,1708.00
2019-05-22T09:35:25.260Z,1624.00
2019-05-22T09:36:25.167Z,1240.00
2019-05-22T09:37:25.165Z,1364.00
2019-05-22T09:38:25.128Z,1724.00
2019-05-22T09:39:25.150Z,1180.00
2019-05-22T09:40:25.206Z,3648.00
2019-05-22T09:41:25.104Z,3396.00
2019-05-22T09:42:25.086Z,3456.00
2019-05-22T09:43:25.076Z,3468.00
2019-05-22T09:44:25.082Z,3528.00
2019-05-22T09:45:25.078Z,3476.00
2019-05-22T09:46:25.060Z,3520.00
2019-05-22T09:47:25.070Z,3548.00
2019-05-22T09:48:25.060Z,3508.00
2019-05-22T09:49:25.016Z,3484.00
2019-05-22T09:50:25.057Z,3380.00
2019-05-22T09:51:24.983Z,3316.00
2019-05-22T09:52:25.006Z,3500.00
2019-05-22T09:53:24.975Z,3616.00
2019-05-22T09:54:24.977Z,3432.00
2019-05-22T09:55:24.977Z,1516.00
2019-05-22T09:56:24.956Z,2764.00
2019-05-22T09:57:24.918Z,4040.00
2019-05-22T09:58:24.941Z,1792.00
2019-05-22T09:59:24.943Z,1436.00
2019-05-22T10:00:24.882Z,3328.00
2019-05-22T10:01:24.873Z,3372.00
2019-05-22T10:02:24.878Z,1368.00
2019-05-22T10:03:24.884Z,1244.00
2019-05-22T10:04:24.837Z,1132.00
2019-05-22T10:05:24.827Z,992.00
2019-05-22T10:06:24.842Z,3860.00
2019-05-22T10:07:24.809Z,3472.00
2019-05-22T10:08:24.803Z,3472.00
2019-05-22T10:09:24.834Z,3388.00
2019-05-22T10:10:24.785Z,3448.00
2019-05-22T10:11:24.760Z,3664.00
2019-05-22T10:12:24.751Z,3964.00
2019-05-22T10:13:24.737Z,1660.00
2019-05-22T10:14:24.740Z,1176.00
2019-05-22T10:15:24.861Z,1112.00
2019-05-22T10:16:24.725Z,2904.00
2019-05-22T10:17:24.701Z,2060.00
2019-05-22T10:18:24.698Z,3864.00
2019-05-22T10:19:24.673Z,3792.00
2019-05-22T10:20:24.676Z,1400.00
2019-05-22T10:21:24.666Z,1128.00
2019-05-22T10:22:24.641Z,3396.00
2019-05-22T10:23:24.637Z,3220.00
2019-05-22T10:24:24.631Z,3292.00
2019-05-22T10:25:24.613Z,3448.00
2019-05-22T10:26:24.624Z,3328.00
2019-05-22T10:27:24.612Z,2324.00
2019-05-22T10:28:24.632Z,2176.00
2019-05-22T10:29:24.567Z,3552.00
2019-05-22T10:30:24.559Z,3456.00
2019-05-22T10:31:24.545Z,3664.00
2019-05-22T10:32:24.549Z,3504.00
2019-05-22T10:33:24.532Z,3288.00
2019-05-22T10:34:24.551Z,3300.00
2019-05-22T10:35:24.499Z,3492.00
2019-05-22T10:36:24.527Z,3628.00
2019-05-22T10:37:24.475Z,3704.00
2019-05-22T10:38:24.467Z,1940.00
2019-05-22T10:39:24.926Z,3684.00
2019-05-22T10:40:24.458Z,1268.00
2019-05-22T10:41:24.438Z,3600.00
2019-05-22T10:42:24.426Z,1052.00
2019-05-22T10:43:24.414Z,776.00
2019-05-22T10:44:24.409Z,3672.00
2019-05-22T10:45:24.399Z,3216.00
2019-05-22T10:46:24.377Z,3344.00
2019-05-22T10:47:24.364Z,3268.00
2019-05-22T10:48:24.369Z,3340.00
2019-05-22T10:49:24.352Z,3368.00
2019-05-22T10:50:24.350Z,3452.00
2019-05-22T10:51:24.338Z,3656.00
2019-05-22T10:52:24.311Z,2672.00
2019-05-22T10:53:33.747Z,3296.00
2019-05-22T10:54:25.308Z,3364.00
2019-05-22T10:55:24.373Z,3092.00
2019-05-22T10:56:24.269Z,3440.00
2019-05-22T10:57:24.275Z,1748.00
2019-05-22T10:58:24.246Z,1096.00
2019-05-22T10:59:24.298Z,3348.00
2019-05-22T11:00:24.234Z,3320.00
2019-05-22T11:01:24.214Z,3364.00
2019-05-22T11:02:24.200Z,3376.00
2019-05-22T11:03:24.198Z,3404.00
2019-05-22T11:04:24.181Z,3392.00
2019-05-22T11:05:24.185Z,3228.00
2019-05-22T11:06:24.157Z,3260.00
2019-05-22T11:07:24.145Z,3360.00
2019-05-22T11:08:24.141Z,3124.00
2019-05-22T11:09:24.136Z,3416.00
2019-05-22T11:10:24.116Z,3480.00
2019-05-22T11:11:24.111Z,3464.00
2019-05-22T11:12:24.097Z,3280.00
2019-05-22T11:13:24.078Z,3080.00
2019-05-22T11:14:24.065Z,3204.00
2019-05-22T11:15:24.073Z,3448.00
2019-05-22T11:16:24.049Z,944.00
2019-05-22T11:17:24.038Z,748.00
2019-05-22T11:18:24.023Z,912.00
2019-05-22T11:19:24.013Z,804.00
2019-05-22T11:20:24.002Z,2724.00
2019-05-22T11:21:24.009Z,3456.00
2019-05-22T11:22:23.974Z,1184.00
2019-05-22T11:23:23.997Z,1104.00
2019-05-22T11:24:23.958Z,2652.00
2019-05-22T11:25:23.945Z,3440.00
2019-05-22T11:26:23.950Z,3344.00
2019-05-22T11:27:23.928Z,3308.00
2019-05-22T11:28:23.938Z,3364.00
2019-05-22T11:29:23.910Z,3488.00
2019-05-22T11:30:23.971Z,3404.00
2019-05-22T11:31:23.882Z,860.00
2019-05-22T11:32:23.882Z,796.00
2019-05-22T11:33:23.853Z,708.00
2019-05-22T11:34:23.866Z,720.00
2019-05-22T11:35:23.853Z,3084.00
2019-05-22T11:36:23.852Z,3260.00
2019-05-22T11:37:23.820Z,3268.00
2019-05-22T11:38:23.995Z,3044.00
2019-05-22T11:39:38.197Z,3064.00
2019-05-22T11:40:24.790Z,3180.00
2019-05-22T11:41:23.764Z,3256.00
2019-05-22T11:42:23.759Z,3368.00
2019-05-22T11:43:23.762Z,3416.00
2019-05-22T11:44:23.739Z,1020.00
2019-05-22T11:45:23.763Z,992.00
2019-05-22T11:46:23.730Z,2928.00
2019-05-22T11:47:23.710Z,2892.00
2019-05-22T11:48:23.688Z,3096.00
2019-05-22T11:49:23.679Z,3204.00
2019-05-22T11:50:23.679Z,3036.00
2019-05-22T11:51:23.676Z,3192.00
2019-05-22T11:52:23.668Z,3112.00
2019-05-22T11:53:23.655Z,3180.00
2019-05-22T11:54:23.644Z,3188.00
2019-05-22T11:55:40.777Z,3260.00
2019-05-22T11:56:24.619Z,3152.00
2019-05-22T11:57:23.606Z,3180.00
2019-05-22T11:58:23.587Z,3316.00
2019-05-22T11:59:23.569Z,3244.00
2019-05-22T12:00:23.561Z,3204.00
2019-05-22T12:01:23.582Z,2684.00
2019-05-22T12:02:23.550Z,2784.00
2019-05-22T12:03:23.535Z,2876.00
2019-05-22T12:04:23.541Z,3028.00
2019-05-22T12:05:23.510Z,3088.00
2019-05-22T12:06:23.496Z,2756.00
2019-05-22T12:07:23.478Z,2840.00
2019-05-22T12:08:23.481Z,2824.00
2019-05-22T12:09:23.465Z,3000.00
2019-05-22T12:10:23.455Z,1820.00
2019-05-22T12:11:23.435Z,812.00
2019-05-22T12:12:23.436Z,2792.00
2019-05-22T12:13:23.434Z,2916.00
2019-05-22T12:14:23.410Z,2912.00
2019-05-22T12:15:23.404Z,3012.00
2019-05-22T12:16:23.386Z,3060.00
2019-05-22T12:17:37.531Z,1736.00
2019-05-22T12:18:24.388Z,2828.00
2019-05-22T12:19:23.361Z,740.00
2019-05-22T12:20:23.347Z,788.00
2019-05-22T12:21:23.331Z,1048.00
2019-05-22T12:22:23.321Z,1652.00
2019-05-22T12:23:23.307Z,800.00
2019-05-22T12:24:28.481Z,744.00
2019-05-22T12:25:24.289Z,788.00
2019-05-22T12:26:23.277Z,724.00
2019-05-22T12:27:23.264Z,672.00
2019-05-22T12:28:23.253Z,660.00
2019-05-22T12:29:23.269Z,680.00
2019-05-22T12:30:23.232Z,804.00
2019-05-22T12:31:23.228Z,3036.00
2019-05-22T12:32:23.219Z,2540.00
2019-05-22T12:33:23.196Z,964.00
2019-05-22T12:34:23.189Z,2956.00
2019-05-22T12:35:23.185Z,1404.00
2019-05-22T12:36:23.187Z,824.00
2019-05-22T12:37:23.180Z,1044.00
2019-05-22T12:38:26.278Z,892.00
2019-05-22T12:39:23.150Z,740.00
2019-05-22T12:40:23.140Z,704.00